sensor_id;sensor_type;location;lat;lon;timestamp;P1;durP1;ratioP1;P2;durP2;ratioP2
31043;SDS011;17710;52.520;13.352;2023-12-20T00:02:44;17.67;;;8.82;;
31043;SDS011;17710;52.520;13.352;2023-12-20T00:05:12;5.30;;;4.80;;
31043;SDS011;17710;52.520;13.352;2023-12-20T00:07:38;5.13;;;4.63;;
31043;SDS011;17710;52.520;13.352;2023-12-20T00:10:05;4.30;;;4.00;;
31043;SDS011;17710;52.520;13.352;2023-12-20T00:12:33;3.90;;;3.35;;
31043;SDS011;17710;52.520;13.352;2023-12-20T00:15:00;3.95;;;3.53;;
31043;SDS011;17710;52.520;13.352;2023-12-20T00:17:26;3.58;;;3.28;;
31043;SDS011;17710;52.520;13.352;2023-12-20T00:19:53;4.07;;;3.78;;
31043;SDS011;17710;52.520;13.352;2023-12-20T00:22:19;4.82;;;3.38;;
31043;SDS011;17710;52.520;13.352;2023-12-20T00:24:46;5.10;;;4.60;;
31043;SDS011;17710;52.520;13.352;2023-12-20T00:27:12;4.43;;;4.00;;
31043;SDS011;17710;52.520;13.352;2023-12-20T00:29:40;3.13;;;2.83;;
31043;SDS011;17710;52.520;13.352;2023-12-20T00:32:08;4.68;;;3.83;;
31043;SDS011;17710;52.520;13.352;2023-12-20T00:34:34;6.32;;;3.88;;
31043;SDS011;17710;52.520;13.352;2023-12-20T00:37:00;3.55;;;3.25;;
31043;SDS011;17710;52.520;13.352;2023-12-20T00:39:27;4.13;;;2.67;;
31043;SDS011;17710;52.520;13.352;2023-12-20T00:41:53;4.05;;;3.65;;
31043;SDS011;17710;52.520;13.352;2023-12-20T00:44:20;4.00;;;3.47;;
31043;SDS011;17710;52.520;13.352;2023-12-20T00:46:47;3.53;;;3.22;;
31043;SDS011;17710;52.520;13.352;2023-12-20T00:49:14;4.05;;;3.40;;
31043;SDS011;17710;52.520;13.352;2023-12-20T00:51:40;3.60;;;3.30;;
31043;SDS011;17710;52.520;13.352;2023-12-20T00:54:07;3.65;;;3.35;;
31043;SDS011;17710;52.520;13.352;2023-12-20T00:56:34;3.88;;;3.55;;
31043;SDS011;17710;52.520;13.352;2023-12-20T00:59:01;4.20;;;3.90;;
31043;SDS011;17710;52.520;13.352;2023-12-20T01:01:27;4.15;;;3.72;;
31043;SDS011;17710;52.520;13.352;2023-12-20T01:03:55;3.80;;;3.50;;
31043;SDS011;17710;52.520;13.352;2023-12-20T01:06:21;3.88;;;3.47;;
31043;SDS011;17710;52.520;13.352;2023-12-20T01:08:48;4.03;;;3.63;;
31043;SDS011;17710;52.520;13.352;2023-12-20T01:11:14;4.15;;;3.80;;
31043;SDS011;17710;52.520;13.352;2023-12-20T01:13:40;4.43;;;4.00;;
31043;SDS011;17710;52.520;13.352;2023-12-20T01:16:08;4.10;;;3.70;;
31043;SDS011;17710;52.520;13.352;2023-12-20T01:18:36;4.18;;;3.80;;
31043;SDS011;17710;52.520;13.352;2023-12-20T01:21:05;5.65;;;4.95;;
31043;SDS011;17710;52.520;13.352;2023-12-20T01:23:31;4.50;;;4.10;;
31043;SDS011;17710;52.520;13.352;2023-12-20T01:25:58;4.80;;;4.28;;
31043;SDS011;17710;52.520;13.352;2023-12-20T01:28:25;4.45;;;4.05;;
31043;SDS011;17710;52.520;13.352;2023-12-20T01:30:51;4.90;;;4.40;;
31043;SDS011;17710;52.520;13.352;2023-12-20T01:33:18;5.43;;;4.50;;
31043;SDS011;17710;52.520;13.352;2023-12-20T01:35:45;5.13;;;3.92;;
31043;SDS011;17710;52.520;13.352;2023-12-20T01:38:12;4.57;;;3.80;;
31043;SDS011;17710;52.520;13.352;2023-12-20T01:40:43;6.03;;;4.50;;
31043;SDS011;17710;52.520;13.352;2023-12-20T01:43:10;4.28;;;3.80;;
31043;SDS011;17710;52.520;13.352;2023-12-20T01:45:37;3.92;;;3.63;;
31043;SDS011;17710;52.520;13.352;2023-12-20T01:48:04;4.30;;;3.90;;
31043;SDS011;17710;52.520;13.352;2023-12-20T01:50:31;4.35;;;3.95;;
31043;SDS011;17710;52.520;13.352;2023-12-20T01:52:59;4.30;;;3.63;;
31043;SDS011;17710;52.520;13.352;2023-12-20T01:55:29;4.22;;;3.83;;
31043;SDS011;17710;52.520;13.352;2023-12-20T01:57:58;4.82;;;4.22;;
31043;SDS011;17710;52.520;13.352;2023-12-20T02:00:25;4.25;;;3.85;;
31043;SDS011;17710;52.520;13.352;2023-12-20T02:02:54;5.63;;;4.20;;
31043;SDS011;17710;52.520;13.352;2023-12-20T02:05:20;4.25;;;3.85;;
31043;SDS011;17710;52.520;13.352;2023-12-20T02:07:48;3.97;;;3.58;;
31043;SDS011;17710;52.520;13.352;2023-12-20T02:10:14;5.20;;;2.88;;
31043;SDS011;17710;52.520;13.352;2023-12-20T02:12:43;4.63;;;3.33;;
31043;SDS011;17710;52.520;13.352;2023-12-20T02:15:09;4.43;;;3.25;;
31043;SDS011;17710;52.520;13.352;2023-12-20T02:17:36;2.65;;;2.28;;
31043;SDS011;17710;52.520;13.352;2023-12-20T02:20:05;3.40;;;2.55;;
31043;SDS011;17710;52.520;13.352;2023-12-20T02:22:33;3.45;;;3.15;;
31043;SDS011;17710;52.520;13.352;2023-12-20T02:25:00;3.03;;;2.75;;
31043;SDS011;17710;52.520;13.352;2023-12-20T02:27:27;4.45;;;2.80;;
31043;SDS011;17710;52.520;13.352;2023-12-20T02:29:54;2.55;;;2.33;;
31043;SDS011;17710;52.520;13.352;2023-12-20T02:32:21;2.95;;;2.65;;
31043;SDS011;17710;52.520;13.352;2023-12-20T02:34:51;3.20;;;2.90;;
31043;SDS011;17710;52.520;13.352;2023-12-20T02:37:17;2.90;;;2.60;;
31043;SDS011;17710;52.520;13.352;2023-12-20T02:39:45;2.95;;;2.70;;
31043;SDS011;17710;52.520;13.352;2023-12-20T02:42:11;3.28;;;2.97;;
31043;SDS011;17710;52.520;13.352;2023-12-20T02:44:38;4.28;;;3.65;;
31043;SDS011;17710;52.520;13.352;2023-12-20T02:47:04;4.18;;;3.78;;
31043;SDS011;17710;52.520;13.352;2023-12-20T02:49:31;4.63;;;3.90;;
31043;SDS011;17710;52.520;13.352;2023-12-20T02:51:57;5.70;;;4.07;;
31043;SDS011;17710;52.520;13.352;2023-12-20T02:54:23;6.55;;;4.18;;
31043;SDS011;17710;52.520;13.352;2023-12-20T02:56:51;6.13;;;4.65;;
31043;SDS011;17710;52.520;13.352;2023-12-20T02:59:18;4.78;;;4.25;;
31043;SDS011;17710;52.520;13.352;2023-12-20T03:01:44;5.10;;;4.60;;
31043;SDS011;17710;52.520;13.352;2023-12-20T03:04:12;7.82;;;5.00;;
31043;SDS011;17710;52.520;13.352;2023-12-20T03:06:38;5.65;;;4.60;;
31043;SDS011;17710;52.520;13.352;2023-12-20T03:09:05;5.05;;;4.15;;
31043;SDS011;17710;52.520;13.352;2023-12-20T03:11:31;6.63;;;3.88;;
31043;SDS011;17710;52.520;13.352;2023-12-20T03:13:59;6.22;;;4.07;;
31043;SDS011;17710;52.520;13.352;2023-12-20T03:16:25;12.23;;;3.90;;
31043;SDS011;17710;52.520;13.352;2023-12-20T03:18:52;5.25;;;3.75;;
31043;SDS011;17710;52.520;13.352;2023-12-20T03:21:18;9.05;;;3.58;;
31043;SDS011;17710;52.520;13.352;2023-12-20T03:23:45;9.30;;;3.42;;
31043;SDS011;17710;52.520;13.352;2023-12-20T03:26:11;5.53;;;3.17;;
31043;SDS011;17710;52.520;13.352;2023-12-20T03:28:38;7.20;;;2.92;;
31043;SDS011;17710;52.520;13.352;2023-12-20T03:31:06;8.43;;;3.30;;
31043;SDS011;17710;52.520;13.352;2023-12-20T03:33:32;4.82;;;2.80;;
31043;SDS011;17710;52.520;13.352;2023-12-20T03:35:59;7.13;;;2.67;;
31043;SDS011;17710;52.520;13.352;2023-12-20T03:38:25;7.28;;;2.17;;
31043;SDS011;17710;52.520;13.352;2023-12-20T03:40:52;6.78;;;2.55;;
31043;SDS011;17710;52.520;13.352;2023-12-20T03:43:18;8.68;;;2.00;;
31043;SDS011;17710;52.520;13.352;2023-12-20T03:45:44;9.25;;;1.92;;
31043;SDS011;17710;52.520;13.352;2023-12-20T03:48:12;4.05;;;1.60;;
31043;SDS011;17710;52.520;13.352;2023-12-20T03:50:38;7.13;;;1.63;;
31043;SDS011;17710;52.520;13.352;2023-12-20T03:53:05;10.65;;;1.75;;
31043;SDS011;17710;52.520;13.352;2023-12-20T03:55:31;10.52;;;1.20;;
31043;SDS011;17710;52.520;13.352;2023-12-20T03:57:58;9.05;;;1.60;;
31043;SDS011;17710;52.520;13.352;2023-12-20T04:00:24;10.85;;;2.30;;
31043;SDS011;17710;52.520;13.352;2023-12-20T04:02:50;13.48;;;2.70;;
31043;SDS011;17710;52.520;13.352;2023-12-20T04:05:19;9.15;;;1.65;;
31043;SDS011;17710;52.520;13.352;2023-12-20T04:07:45;13.52;;;2.28;;
31043;SDS011;17710;52.520;13.352;2023-12-20T04:10:12;7.25;;;1.48;;
31043;SDS011;17710;52.520;13.352;2023-12-20T04:12:39;8.77;;;1.60;;
31043;SDS011;17710;52.520;13.352;2023-12-20T04:15:05;11.57;;;1.63;;
31043;SDS011;17710;52.520;13.352;2023-12-20T04:17:34;11.80;;;1.60;;
31043;SDS011;17710;52.520;13.352;2023-12-20T04:20:00;10.20;;;1.92;;
31043;SDS011;17710;52.520;13.352;2023-12-20T04:22:28;12.63;;;1.75;;
31043;SDS011;17710;52.520;13.352;2023-12-20T04:24:55;6.75;;;1.38;;
31043;SDS011;17710;52.520;13.352;2023-12-20T04:27:21;10.13;;;1.85;;
31043;SDS011;17710;52.520;13.352;2023-12-20T04:29:48;12.73;;;1.67;;
31043;SDS011;17710;52.520;13.352;2023-12-20T04:32:14;10.35;;;1.73;;
31043;SDS011;17710;52.520;13.352;2023-12-20T04:34:40;9.63;;;1.83;;
31043;SDS011;17710;52.520;13.352;2023-12-20T04:37:07;14.82;;;1.73;;
31043;SDS011;17710;52.520;13.352;2023-12-20T04:39:34;6.95;;;1.55;;
31043;SDS011;17710;52.520;13.352;2023-12-20T04:42:01;11.40;;;2.05;;
31043;SDS011;17710;52.520;13.352;2023-12-20T04:44:27;13.90;;;2.72;;
31043;SDS011;17710;52.520;13.352;2023-12-20T04:46:54;16.65;;;2.30;;
31043;SDS011;17710;52.520;13.352;2023-12-20T04:49:21;7.55;;;1.27;;
31043;SDS011;17710;52.520;13.352;2023-12-20T04:51:47;9.50;;;1.63;;
31043;SDS011;17710;52.520;13.352;2023-12-20T04:54:14;8.45;;;1.75;;
31043;SDS011;17710;52.520;13.352;2023-12-20T04:56:41;9.18;;;1.55;;
31043;SDS011;17710;52.520;13.352;2023-12-20T04:59:08;9.23;;;2.58;;
31043;SDS011;17710;52.520;13.352;2023-12-20T05:01:34;12.98;;;1.90;;
31043;SDS011;17710;52.520;13.352;2023-12-20T05:04:01;16.98;;;1.90;;
31043;SDS011;17710;52.520;13.352;2023-12-20T05:06:27;10.48;;;2.03;;
31043;SDS011;17710;52.520;13.352;2023-12-20T05:08:54;14.27;;;1.75;;
31043;SDS011;17710;52.520;13.352;2023-12-20T05:11:20;14.65;;;2.40;;
31043;SDS011;17710;52.520;13.352;2023-12-20T05:13:48;9.00;;;1.35;;
31043;SDS011;17710;52.520;13.352;2023-12-20T05:16:14;12.02;;;1.60;;
31043;SDS011;17710;52.520;13.352;2023-12-20T05:18:42;9.25;;;1.20;;
31043;SDS011;17710;52.520;13.352;2023-12-20T05:21:09;17.65;;;2.17;;
31043;SDS011;17710;52.520;13.352;2023-12-20T05:23:35;7.63;;;2.20;;
31043;SDS011;17710;52.520;13.352;2023-12-20T05:26:02;7.90;;;1.45;;
31043;SDS011;17710;52.520;13.352;2023-12-20T05:28:28;12.40;;;1.58;;
31043;SDS011;17710;52.520;13.352;2023-12-20T05:30:56;12.45;;;2.00;;
31043;SDS011;17710;52.520;13.352;2023-12-20T05:33:22;13.55;;;2.22;;
31043;SDS011;17710;52.520;13.352;2023-12-20T05:35:49;9.60;;;1.55;;
31043;SDS011;17710;52.520;13.352;2023-12-20T05:38:16;11.90;;;1.30;;
31043;SDS011;17710;52.520;13.352;2023-12-20T05:40:43;15.75;;;1.48;;
31043;SDS011;17710;52.520;13.352;2023-12-20T05:43:09;13.23;;;1.92;;
31043;SDS011;17710;52.520;13.352;2023-12-20T05:45:35;8.13;;;1.10;;
31043;SDS011;17710;52.520;13.352;2023-12-20T05:48:04;10.18;;;1.17;;
31043;SDS011;17710;52.520;13.352;2023-12-20T05:50:30;15.45;;;1.40;;
31043;SDS011;17710;52.520;13.352;2023-12-20T05:52:57;15.65;;;1.60;;
31043;SDS011;17710;52.520;13.352;2023-12-20T05:55:23;11.90;;;1.85;;
31043;SDS011;17710;52.520;13.352;2023-12-20T05:57:50;16.05;;;1.90;;
31043;SDS011;17710;52.520;13.352;2023-12-20T06:00:16;12.98;;;1.20;;
31043;SDS011;17710;52.520;13.352;2023-12-20T06:02:43;12.27;;;1.33;;
31043;SDS011;17710;52.520;13.352;2023-12-20T06:05:11;8.75;;;1.92;;
31043;SDS011;17710;52.520;13.352;2023-12-20T06:07:38;12.75;;;1.67;;
31043;SDS011;17710;52.520;13.352;2023-12-20T06:10:05;12.45;;;1.52;;
31043;SDS011;17710;52.520;13.352;2023-12-20T06:12:32;11.13;;;1.40;;
31043;SDS011;17710;52.520;13.352;2023-12-20T06:15:00;19.83;;;2.00;;
31043;SDS011;17710;52.520;13.352;2023-12-20T06:17:27;14.50;;;1.58;;
31043;SDS011;17710;52.520;13.352;2023-12-20T06:19:55;14.75;;;2.00;;
31043;SDS011;17710;52.520;13.352;2023-12-20T06:22:23;19.73;;;1.92;;
31043;SDS011;17710;52.520;13.352;2023-12-20T06:24:49;9.27;;;1.40;;
31043;SDS011;17710;52.520;13.352;2023-12-20T06:27:16;7.47;;;1.60;;
31043;SDS011;17710;52.520;13.352;2023-12-20T06:29:42;7.45;;;1.33;;
31043;SDS011;17710;52.520;13.352;2023-12-20T06:32:10;10.40;;;1.30;;
31043;SDS011;17710;52.520;13.352;2023-12-20T06:34:36;12.95;;;1.38;;
31043;SDS011;17710;52.520;13.352;2023-12-20T06:37:03;11.75;;;1.20;;
31043;SDS011;17710;52.520;13.352;2023-12-20T06:39:31;10.75;;;1.50;;
31043;SDS011;17710;52.520;13.352;2023-12-20T06:41:59;9.48;;;1.27;;
31043;SDS011;17710;52.520;13.352;2023-12-20T06:44:25;10.80;;;1.88;;
31043;SDS011;17710;52.520;13.352;2023-12-20T06:46:52;8.25;;;1.35;;
31043;SDS011;17710;52.520;13.352;2023-12-20T06:49:18;13.05;;;2.25;;
31043;SDS011;17710;52.520;13.352;2023-12-20T06:51:45;11.38;;;2.83;;
31043;SDS011;17710;52.520;13.352;2023-12-20T06:54:11;9.00;;;1.55;;
31043;SDS011;17710;52.520;13.352;2023-12-20T06:56:39;11.20;;;1.60;;
31043;SDS011;17710;52.520;13.352;2023-12-20T06:59:06;8.35;;;1.58;;
31043;SDS011;17710;52.520;13.352;2023-12-20T07:01:32;11.90;;;1.90;;
31043;SDS011;17710;52.520;13.352;2023-12-20T07:03:59;13.93;;;1.77;;
31043;SDS011;17710;52.520;13.352;2023-12-20T07:06:25;11.30;;;3.30;;
31043;SDS011;17710;52.520;13.352;2023-12-20T07:08:52;12.43;;;1.65;;
31043;SDS011;17710;52.520;13.352;2023-12-20T07:11:18;7.75;;;1.45;;
31043;SDS011;17710;52.520;13.352;2023-12-20T07:13:46;9.00;;;1.83;;
31043;SDS011;17710;52.520;13.352;2023-12-20T07:16:12;10.07;;;1.60;;
31043;SDS011;17710;52.520;13.352;2023-12-20T07:18:39;12.88;;;1.85;;
31043;SDS011;17710;52.520;13.352;2023-12-20T07:21:06;8.70;;;2.70;;
31043;SDS011;17710;52.520;13.352;2023-12-20T07:23:34;20.88;;;4.93;;
31043;SDS011;17710;52.520;13.352;2023-12-20T07:26:00;8.40;;;1.20;;
31043;SDS011;17710;52.520;13.352;2023-12-20T07:28:27;15.98;;;3.53;;
31043;SDS011;17710;52.520;13.352;2023-12-20T07:30:54;6.32;;;1.27;;
31043;SDS011;17710;52.520;13.352;2023-12-20T07:33:21;8.77;;;2.10;;
31043;SDS011;17710;52.520;13.352;2023-12-20T07:35:47;12.80;;;1.80;;
31043;SDS011;17710;52.520;13.352;2023-12-20T07:38:14;15.77;;;1.95;;
31043;SDS011;17710;52.520;13.352;2023-12-20T07:40:41;8.57;;;2.00;;
31043;SDS011;17710;52.520;13.352;2023-12-20T07:43:07;12.80;;;2.28;;
31043;SDS011;17710;52.520;13.352;2023-12-20T07:45:34;10.38;;;1.70;;
31043;SDS011;17710;52.520;13.352;2023-12-20T07:48:02;16.88;;;2.05;;
31043;SDS011;17710;52.520;13.352;2023-12-20T07:50:30;19.95;;;1.90;;
31043;SDS011;17710;52.520;13.352;2023-12-20T07:52:56;11.57;;;1.77;;
31043;SDS011;17710;52.520;13.352;2023-12-20T07:55:24;8.10;;;1.50;;
31043;SDS011;17710;52.520;13.352;2023-12-20T07:57:51;8.05;;;1.45;;
31043;SDS011;17710;52.520;13.352;2023-12-20T08:00:17;11.65;;;1.80;;
31043;SDS011;17710;52.520;13.352;2023-12-20T08:02:44;11.45;;;1.60;;
31043;SDS011;17710;52.520;13.352;2023-12-20T08:05:12;11.02;;;2.85;;
31043;SDS011;17710;52.520;13.352;2023-12-20T08:07:39;10.55;;;1.40;;
31043;SDS011;17710;52.520;13.352;2023-12-20T08:10:09;14.00;;;2.47;;
31043;SDS011;17710;52.520;13.352;2023-12-20T08:12:36;18.80;;;2.35;;
31043;SDS011;17710;52.520;13.352;2023-12-20T08:15:05;15.80;;;1.45;;
31043;SDS011;17710;52.520;13.352;2023-12-20T08:17:32;14.88;;;2.30;;
31043;SDS011;17710;52.520;13.352;2023-12-20T08:19:58;8.98;;;1.60;;
31043;SDS011;17710;52.520;13.352;2023-12-20T08:22:26;7.97;;;1.38;;
31043;SDS011;17710;52.520;13.352;2023-12-20T08:24:53;8.57;;;1.60;;
31043;SDS011;17710;52.520;13.352;2023-12-20T08:27:19;11.38;;;1.58;;
31043;SDS011;17710;52.520;13.352;2023-12-20T08:29:45;7.90;;;1.30;;
31043;SDS011;17710;52.520;13.352;2023-12-20T08:32:12;10.18;;;1.67;;
31043;SDS011;17710;52.520;13.352;2023-12-20T08:34:39;11.77;;;1.70;;
31043;SDS011;17710;52.520;13.352;2023-12-20T08:37:06;10.70;;;1.75;;
31043;SDS011;17710;52.520;13.352;2023-12-20T08:39:33;11.77;;;1.55;;
31043;SDS011;17710;52.520;13.352;2023-12-20T08:42:00;15.05;;;2.10;;
31043;SDS011;17710;52.520;13.352;2023-12-20T08:44:26;7.72;;;1.38;;
31043;SDS011;17710;52.520;13.352;2023-12-20T08:46:53;9.85;;;1.48;;
31043;SDS011;17710;52.520;13.352;2023-12-20T08:49:22;9.95;;;1.23;;
31043;SDS011;17710;52.520;13.352;2023-12-20T08:51:48;15.15;;;1.60;;
31043;SDS011;17710;52.520;13.352;2023-12-20T08:54:14;9.88;;;1.20;;
31043;SDS011;17710;52.520;13.352;2023-12-20T08:56:43;14.88;;;2.28;;
31043;SDS011;17710;52.520;13.352;2023-12-20T08:59:10;9.00;;;1.20;;
31043;SDS011;17710;52.520;13.352;2023-12-20T09:01:37;9.77;;;1.55;;
31043;SDS011;17710;52.520;13.352;2023-12-20T09:04:03;10.55;;;1.45;;
31043;SDS011;17710;52.520;13.352;2023-12-20T09:06:31;14.05;;;2.15;;
31043;SDS011;17710;52.520;13.352;2023-12-20T09:08:57;10.45;;;1.58;;
31043;SDS011;17710;52.520;13.352;2023-12-20T09:11:24;15.45;;;1.83;;
31043;SDS011;17710;52.520;13.352;2023-12-20T09:13:51;11.40;;;1.30;;
31043;SDS011;17710;52.520;13.352;2023-12-20T09:16:18;11.20;;;1.70;;
31043;SDS011;17710;52.520;13.352;2023-12-20T09:18:44;13.93;;;1.88;;
31043;SDS011;17710;52.520;13.352;2023-12-20T09:21:11;9.73;;;2.05;;
31043;SDS011;17710;52.520;13.352;2023-12-20T09:23:37;12.88;;;1.70;;
31043;SDS011;17710;52.520;13.352;2023-12-20T09:26:03;5.47;;;1.45;;
31043;SDS011;17710;52.520;13.352;2023-12-20T09:28:30;7.15;;;1.55;;
31043;SDS011;17710;52.520;13.352;2023-12-20T09:31:03;11.75;;;1.42;;
31043;SDS011;17710;52.520;13.352;2023-12-20T09:33:30;10.35;;;1.45;;
31043;SDS011;17710;52.520;13.352;2023-12-20T09:35:56;13.27;;;1.88;;
31043;SDS011;17710;52.520;13.352;2023-12-20T09:38:23;12.48;;;1.70;;
31043;SDS011;17710;52.520;13.352;2023-12-20T09:40:49;12.75;;;2.03;;
31043;SDS011;17710;52.520;13.352;2023-12-20T09:43:18;13.98;;;1.63;;
31043;SDS011;17710;52.520;13.352;2023-12-20T09:45:46;8.55;;;1.65;;
31043;SDS011;17710;52.520;13.352;2023-12-20T09:48:15;14.98;;;1.80;;
31043;SDS011;17710;52.520;13.352;2023-12-20T09:50:44;16.33;;;1.92;;
31043;SDS011;17710;52.520;13.352;2023-12-20T09:53:11;12.10;;;1.65;;
31043;SDS011;17710;52.520;13.352;2023-12-20T09:55:41;15.98;;;2.33;;
31043;SDS011;17710;52.520;13.352;2023-12-20T09:58:08;12.15;;;2.00;;
31043;SDS011;17710;52.520;13.352;2023-12-20T10:00:34;10.48;;;1.80;;
31043;SDS011;17710;52.520;13.352;2023-12-20T10:03:01;10.50;;;2.25;;
31043;SDS011;17710;52.520;13.352;2023-12-20T10:05:31;8.50;;;1.58;;
31043;SDS011;17710;52.520;13.352;2023-12-20T10:07:58;15.10;;;2.80;;
31043;SDS011;17710;52.520;13.352;2023-12-20T10:10:25;14.57;;;1.98;;
31043;SDS011;17710;52.520;13.352;2023-12-20T10:13:02;10.80;;;1.30;;
31043;SDS011;17710;52.520;13.352;2023-12-20T10:15:29;11.88;;;2.60;;
31043;SDS011;17710;52.520;13.352;2023-12-20T10:17:56;11.77;;;1.95;;
31043;SDS011;17710;52.520;13.352;2023-12-20T10:20:23;14.63;;;1.88;;
31043;SDS011;17710;52.520;13.352;2023-12-20T10:22:51;17.73;;;2.33;;
31043;SDS011;17710;52.520;13.352;2023-12-20T10:25:18;12.13;;;1.77;;
31043;SDS011;17710;52.520;13.352;2023-12-20T10:27:45;9.00;;;1.40;;
31043;SDS011;17710;52.520;13.352;2023-12-20T10:30:12;16.08;;;2.00;;
31043;SDS011;17710;52.520;13.352;2023-12-20T10:32:39;13.82;;;1.60;;
31043;SDS011;17710;52.520;13.352;2023-12-20T10:35:05;8.18;;;1.38;;
31043;SDS011;17710;52.520;13.352;2023-12-20T10:37:33;15.23;;;1.58;;
31043;SDS011;17710;52.520;13.352;2023-12-20T10:40:02;10.98;;;1.70;;
31043;SDS011;17710;52.520;13.352;2023-12-20T10:42:31;15.38;;;1.80;;
31043;SDS011;17710;52.520;13.352;2023-12-20T10:44:58;18.70;;;2.08;;
31043;SDS011;17710;52.520;13.352;2023-12-20T10:47:25;18.13;;;2.40;;
31043;SDS011;17710;52.520;13.352;2023-12-20T10:49:52;8.30;;;2.00;;
31043;SDS011;17710;52.520;13.352;2023-12-20T10:52:19;12.00;;;1.90;;
31043;SDS011;17710;52.520;13.352;2023-12-20T10:54:48;8.90;;;1.77;;
31043;SDS011;17710;52.520;13.352;2023-12-20T10:57:16;8.88;;;2.03;;
31043;SDS011;17710;52.520;13.352;2023-12-20T10:59:44;14.30;;;1.83;;
31043;SDS011;17710;52.520;13.352;2023-12-20T11:02:12;9.23;;;1.55;;
31043;SDS011;17710;52.520;13.352;2023-12-20T11:04:41;9.68;;;1.85;;
31043;SDS011;17710;52.520;13.352;2023-12-20T11:07:17;12.00;;;1.80;;
31043;SDS011;17710;52.520;13.352;2023-12-20T11:09:54;10.38;;;1.55;;
31043;SDS011;17710;52.520;13.352;2023-12-20T11:12:28;10.45;;;2.03;;
31043;SDS011;17710;52.520;13.352;2023-12-20T11:15:02;15.32;;;1.90;;
31043;SDS011;17710;52.520;13.352;2023-12-20T11:17:31;15.48;;;1.70;;
31043;SDS011;17710;52.520;13.352;2023-12-20T11:20:04;11.20;;;1.60;;
31043;SDS011;17710;52.520;13.352;2023-12-20T11:22:33;16.85;;;2.17;;
31043;SDS011;17710;52.520;13.352;2023-12-20T11:25:02;9.50;;;1.38;;
31043;SDS011;17710;52.520;13.352;2023-12-20T11:27:31;15.32;;;1.90;;
31043;SDS011;17710;52.520;13.352;2023-12-20T11:29:58;12.25;;;2.70;;
31043;SDS011;17710;52.520;13.352;2023-12-20T11:32:28;11.93;;;1.90;;
31043;SDS011;17710;52.520;13.352;2023-12-20T11:34:55;11.05;;;3.35;;
31043;SDS011;17710;52.520;13.352;2023-12-20T11:37:25;13.82;;;3.20;;
31043;SDS011;17710;52.520;13.352;2023-12-20T11:39:55;19.88;;;3.42;;
31043;SDS011;17710;52.520;13.352;2023-12-20T11:42:21;14.10;;;2.53;;
31043;SDS011;17710;52.520;13.352;2023-12-20T11:44:49;12.95;;;2.63;;
31043;SDS011;17710;52.520;13.352;2023-12-20T11:47:16;14.18;;;2.00;;
31043;SDS011;17710;52.520;13.352;2023-12-20T11:49:44;9.90;;;1.85;;
31043;SDS011;17710;52.520;13.352;2023-12-20T11:52:11;15.30;;;1.77;;
31043;SDS011;17710;52.520;13.352;2023-12-20T11:54:38;11.02;;;2.28;;
31043;SDS011;17710;52.520;13.352;2023-12-20T11:57:04;12.85;;;1.98;;
31043;SDS011;17710;52.520;13.352;2023-12-20T11:59:31;10.73;;;3.00;;
31043;SDS011;17710;52.520;13.352;2023-12-20T12:01:59;15.63;;;2.63;;
31043;SDS011;17710;52.520;13.352;2023-12-20T12:04:26;12.30;;;2.85;;
31043;SDS011;17710;52.520;13.352;2023-12-20T12:06:53;11.63;;;2.53;;
31043;SDS011;17710;52.520;13.352;2023-12-20T12:09:19;16.65;;;1.90;;
31043;SDS011;17710;52.520;13.352;2023-12-20T12:11:46;8.02;;;1.92;;
31043;SDS011;17710;52.520;13.352;2023-12-20T12:14:13;9.60;;;1.73;;
31043;SDS011;17710;52.520;13.352;2023-12-20T12:16:41;11.45;;;1.77;;
31043;SDS011;17710;52.520;13.352;2023-12-20T12:19:14;15.50;;;2.90;;
31043;SDS011;17710;52.520;13.352;2023-12-20T12:21:46;8.77;;;1.50;;
31043;SDS011;17710;52.520;13.352;2023-12-20T12:24:13;16.02;;;4.25;;
31043;SDS011;17710;52.520;13.352;2023-12-20T12:26:39;10.98;;;1.92;;
31043;SDS011;17710;52.520;13.352;2023-12-20T12:29:07;10.30;;;1.92;;
31043;SDS011;17710;52.520;13.352;2023-12-20T12:31:34;7.10;;;1.67;;
31043;SDS011;17710;52.520;13.352;2023-12-20T12:34:00;11.52;;;1.77;;
31043;SDS011;17710;52.520;13.352;2023-12-20T12:36:29;12.60;;;1.60;;
31043;SDS011;17710;52.520;13.352;2023-12-20T12:38:56;11.20;;;2.08;;
31043;SDS011;17710;52.520;13.352;2023-12-20T12:41:22;11.90;;;1.83;;
31043;SDS011;17710;52.520;13.352;2023-12-20T12:43:49;9.23;;;2.10;;
31043;SDS011;17710;52.520;13.352;2023-12-20T12:46:15;11.57;;;2.17;;
31043;SDS011;17710;52.520;13.352;2023-12-20T12:48:42;9.20;;;1.88;;
31043;SDS011;17710;52.520;13.352;2023-12-20T12:51:08;11.10;;;1.98;;
31043;SDS011;17710;52.520;13.352;2023-12-20T12:53:39;9.82;;;1.65;;
31043;SDS011;17710;52.520;13.352;2023-12-20T12:56:06;9.00;;;1.70;;
31043;SDS011;17710;52.520;13.352;2023-12-20T12:58:33;7.43;;;1.52;;
31043;SDS011;17710;52.520;13.352;2023-12-20T13:00:59;6.03;;;1.80;;
31043;SDS011;17710;52.520;13.352;2023-12-20T13:03:26;4.53;;;1.27;;
31043;SDS011;17710;52.520;13.352;2023-12-20T13:05:52;9.75;;;2.25;;
31043;SDS011;17710;52.520;13.352;2023-12-20T13:08:18;8.02;;;1.60;;
31043;SDS011;17710;52.520;13.352;2023-12-20T13:10:46;10.60;;;2.85;;
31043;SDS011;17710;52.520;13.352;2023-12-20T13:13:13;8.75;;;2.45;;
31043;SDS011;17710;52.520;13.352;2023-12-20T13:15:39;7.88;;;1.13;;
31043;SDS011;17710;52.520;13.352;2023-12-20T13:18:06;7.07;;;2.42;;
31043;SDS011;17710;52.520;13.352;2023-12-20T13:20:34;9.98;;;3.10;;
31043;SDS011;17710;52.520;13.352;2023-12-20T13:23:00;11.05;;;2.13;;
31043;SDS011;17710;52.520;13.352;2023-12-20T13:25:26;2.13;;;0.80;;
31043;SDS011;17710;52.520;13.352;2023-12-20T13:27:57;3.45;;;0.82;;
31043;SDS011;17710;52.520;13.352;2023-12-20T13:30:24;6.50;;;1.10;;
31043;SDS011;17710;52.520;13.352;2023-12-20T13:32:51;3.33;;;0.80;;
31043;SDS011;17710;52.520;13.352;2023-12-20T13:35:17;3.92;;;0.60;;
31043;SDS011;17710;52.520;13.352;2023-12-20T13:37:44;3.60;;;0.68;;
31043;SDS011;17710;52.520;13.352;2023-12-20T13:40:11;3.85;;;1.10;;
31043;SDS011;17710;52.520;13.352;2023-12-20T13:42:37;4.45;;;1.60;;
31043;SDS011;17710;52.520;13.352;2023-12-20T13:45:06;3.80;;;1.63;;
31043;SDS011;17710;52.520;13.352;2023-12-20T13:47:33;2.60;;;0.50;;
31043;SDS011;17710;52.520;13.352;2023-12-20T13:50:00;3.50;;;0.70;;
31043;SDS011;17710;52.520;13.352;2023-12-20T13:52:26;1.52;;;0.45;;
31043;SDS011;17710;52.520;13.352;2023-12-20T13:54:52;3.45;;;0.50;;
31043;SDS011;17710;52.520;13.352;2023-12-20T13:57:19;3.63;;;0.50;;
31043;SDS011;17710;52.520;13.352;2023-12-20T13:59:45;4.57;;;0.55;;
31043;SDS011;17710;52.520;13.352;2023-12-20T14:02:13;2.85;;;0.52;;
31043;SDS011;17710;52.520;13.352;2023-12-20T14:04:41;4.05;;;0.90;;
31043;SDS011;17710;52.520;13.352;2023-12-20T14:07:07;3.45;;;0.63;;
31043;SDS011;17710;52.520;13.352;2023-12-20T14:09:35;4.65;;;1.27;;
31043;SDS011;17710;52.520;13.352;2023-12-20T14:12:02;5.57;;;0.80;;
31043;SDS011;17710;52.520;13.352;2023-12-20T14:14:28;3.83;;;0.50;;
31043;SDS011;17710;52.520;13.352;2023-12-20T14:16:55;1.77;;;0.40;;
31043;SDS011;17710;52.520;13.352;2023-12-20T14:19:23;4.82;;;0.70;;
31043;SDS011;17710;52.520;13.352;2023-12-20T14:21:49;4.25;;;0.85;;
31043;SDS011;17710;52.520;13.352;2023-12-20T14:24:15;2.55;;;0.50;;
31043;SDS011;17710;52.520;13.352;2023-12-20T14:26:42;2.05;;;0.60;;
31043;SDS011;17710;52.520;13.352;2023-12-20T14:29:08;0.77;;;0.35;;